Time;durP1;ratioP1;P1;durP2;ratioP2;P2;SDS_P1;SDS_P2;PMS_P1;PMS_P2;Temp;Humidity;BMP_temperature;BMP_pressure;BME280_temperature;BME280_humidity;BME280_pressure;Samples;Min_cycle;Max_cycle;Signal;HPM_P1;HPM_P2
2022/01/22 00:02:12;;;;;;;11.52;4.57;;;;;;;;;;5018639;28;20112;-56
2022/01/22 00:04:38;;;;;;;10.85;4.13;;;;;;;;;;5025002;28;20441;-58
2022/01/22 00:07:06;;;;;;;14.52;7.40;;;;;;;;;;5023856;28;20033;-58
2022/01/22 00:09:38;;;;;;;9.02;5.68;;;;;;;;;;5022260;28;20107;-57
2022/01/22 00:12:07;;;;;;;13.82;6.45;;;;;;;;;;5023481;28;20026;-58
2022/01/22 00:14:34;;;;;;;8.95;5.50;;;;;;;;;;5019244;28;20084;-55
2022/01/22 00:17:01;;;;;;;6.63;4.38;;;;;;;;;;5021576;28;20433;-58
2022/01/22 00:19:28;;;;;;;6.47;3.92;;;;;;;;;;5025900;28;20100;-58
2022/01/22 00:21:54;;;;;;;9.50;4.30;;;;;;;;;;5019135;28;20117;-55
2022/01/22 00:24:20;;;;;;;9.68;3.92;;;;;;;;;;5022522;28;20041;-59
2022/01/22 00:26:47;;;;;;;8.38;4.10;;;;;;;;;;5017936;28;20072;-59
2022/01/22 00:29:13;;;;;;;4.90;3.60;;;;;;;;;;5019740;28;20037;-58
2022/01/22 00:31:39;;;;;;;11.70;4.45;;;;;;;;;;5023710;28;20152;-59
2022/01/22 00:34:06;;;;;;;5.35;4.40;;;;;;;;;;5019700;28;20120;-59
2022/01/22 00:36:34;;;;;;;6.35;4.00;;;;;;;;;;5020803;28;20096;-58
2022/01/22 00:39:00;;;;;;;8.07;4.30;;;;;;;;;;5021294;28;20202;-58
2022/01/22 00:41:26;;;;;;;5.30;3.80;;;;;;;;;;5022193;28;20124;-57
2022/01/22 00:43:53;;;;;;;8.80;4.18;;;;;;;;;;5020557;28;20509;-59
2022/01/22 00:46:20;;;;;;;7.00;4.10;;;;;;;;;;5018214;28;20482;-58
2022/01/22 00:48:46;;;;;;;6.18;4.72;;;;;;;;;;5020726;28;20424;-58
2022/01/22 00:51:12;;;;;;;11.35;4.28;;;;;;;;;;5020997;28;20077;-59
2022/01/22 00:53:38;;;;;;;5.28;3.53;;;;;;;;;;5023794;28;20044;-58
2022/01/22 00:56:04;;;;;;;9.73;3.67;;;;;;;;;;5023029;28;20739;-58
2022/01/22 00:58:30;;;;;;;7.18;4.30;;;;;;;;;;5016970;28;20033;-57
2022/01/22 01:00:56;;;;;;;7.28;4.28;;;;;;;;;;5021292;28;20060;-58
2022/01/22 01:03:21;;;;;;;12.00;4.70;;;;;;;;;;5017661;28;20040;-56
2022/01/22 01:05:47;;;;;;;6.88;3.15;;;;;;;;;;5024887;28;20046;-56
2022/01/22 01:08:13;;;;;;;8.32;3.65;;;;;;;;;;5021431;28;20610;-57
2022/01/22 01:10:38;;;;;;;6.53;3.72;;;;;;;;;;5022651;28;20116;-57
2022/01/22 01:13:05;;;;;;;6.50;3.60;;;;;;;;;;5019090;28;20029;-58
2022/01/22 01:34:23;;;;;;;6.32;3.38;;;;;;;;;;5023718;28;20079;-58
2022/01/22 01:36:49;;;;;;;8.20;4.50;;;;;;;;;;5025584;28;20465;-58
2022/01/22 01:39:23;;;;;;;7.75;4.00;;;;;;;;;;5025778;28;20030;-59
2022/01/22 01:42:01;;;;;;;7.68;3.60;;;;;;;;;;5027650;28;20417;-57
2022/01/22 01:44:27;;;;;;;10.30;3.88;;;;;;;;;;5024220;28;20123;-55
2022/01/22 01:46:59;;;;;;;6.78;4.05;;;;;;;;;;5027508;28;20037;-58
2022/01/22 01:49:26;;;;;;;7.50;3.88;;;;;;;;;;5019786;28;20489;-59
2022/01/22 01:51:55;;;;;;;10.05;4.22;;;;;;;;;;5019281;28;20778;-58
2022/01/22 01:59:43;;;;;;;8.68;4.60;;;;;;;;;;5017913;28;20038;-59
2022/01/22 02:02:10;;;;;;;5.03;3.78;;;;;;;;;;5025493;28;20064;-58
2022/01/22 02:04:36;;;;;;;6.05;4.22;;;;;;;;;;5024184;28;20025;-59
2022/01/22 02:07:02;;;;;;;8.27;4.50;;;;;;;;;;5029144;28;20421;-58
2022/01/22 02:09:29;;;;;;;7.57;4.03;;;;;;;;;;5024313;28;20479;-59
2022/01/22 02:12:07;;;;;;;8.15;4.43;;;;;;;;;;5025802;28;20037;-58
2022/01/22 02:25:27;;;;;;;8.25;5.78;;;;;;;;;;5021051;28;20030;-59
2022/01/22 02:27:53;;;;;;;12.30;5.90;;;;;;;;;;5022174;28;20083;-59
2022/01/22 02:30:23;;;;;;;11.18;6.50;;;;;;;;;;5020071;28;20046;-59
2022/01/22 02:33:27;;;;;;;7.47;4.88;;;;;;;;;;5025330;28;20364;-59
2022/01/22 02:35:57;;;;;;;6.65;4.28;;;;;;;;;;5023340;28;20030;-59
2022/01/22 02:39:04;;;;;;;6.53;4.32;;;;;;;;;;5026455;28;20038;-58
2022/01/22 02:41:19;;;;;;;11.68;4.40;;;;;;;;;;5024197;28;20090;-58
2022/01/22 02:43:48;;;;;;;7.30;4.43;;;;;;;;;;5027182;28;20504;-57
2022/01/22 02:46:20;;;;;;;6.60;4.07;;;;;;;;;;5022997;28;20036;-59
2022/01/22 02:48:46;;;;;;;10.55;4.65;;;;;;;;;;5022204;28;20029;-59
2022/01/22 02:51:12;;;;;;;7.43;3.97;;;;;;;;;;5021694;28;20793;-58
2022/01/22 02:53:37;;;;;;;11.20;4.95;;;;;;;;;;5024416;28;20369;-56
2022/01/22 02:56:04;;;;;;;8.05;3.92;;;;;;;;;;5027314;28;20045;-58
2022/01/22 02:58:29;;;;;;;8.70;4.47;;;;;;;;;;5026181;28;20040;-55
2022/01/22 03:00:55;;;;;;;8.02;4.30;;;;;;;;;;5026270;28;20045;-54
2022/01/22 03:03:21;;;;;;;9.70;4.53;;;;;;;;;;5023443;28;20037;-56
2022/01/22 03:05:47;;;;;;;10.68;4.47;;;;;;;;;;5024254;28;20478;-57
2022/01/22 03:08:14;;;;;;;10.43;4.15;;;;;;;;;;5020795;28;20037;-55
2022/01/22 03:10:43;;;;;;;5.38;3.78;;;;;;;;;;5019842;28;20033;-53
2022/01/22 03:20:59;;;;;;;6.25;3.92;;;;;;;;;;5021586;28;20524;-55
2022/01/22 03:29:05;;;;;;;7.80;3.97;;;;;;;;;;5017444;28;20033;-58
2022/01/22 03:31:31;;;;;;;;;;;;;;;;;;5023539;28;20053;-57
2022/01/22 03:33:57;;;;;;;9.05;4.13;;;;;;;;;;5022265;28;20026;-58
2022/01/22 03:36:24;;;;;;;8.45;3.65;;;;;;;;;;5019262;28;20044;-56
2022/01/22 03:38:50;;;;;;;6.32;4.18;;;;;;;;;;5017751;28;20025;-58
2022/01/22 03:41:17;;;;;;;5.65;3.97;;;;;;;;;;5017188;28;20026;-58
2022/01/22 03:43:43;;;;;;;8.32;3.78;;;;;;;;;;5018166;28;20029;-58
2022/01/22 03:46:09;;;;;;;7.63;4.22;;;;;;;;;;5017037;28;20071;-55
2022/01/22 03:48:35;;;;;;;7.32;4.03;;;;;;;;;;5014552;28;20470;-55
2022/01/22 03:51:02;;;;;;;5.88;3.88;;;;;;;;;;5020953;28;20033;-58
2022/01/22 03:53:28;;;;;;;8.50;3.85;;;;;;;;;;5021035;28;20029;-58
2022/01/22 03:58:24;;;;;;;11.77;6.18;;;;;;;;;;5021788;28;20021;-54
2022/01/22 04:01:00;;;;;;;8.10;5.53;;;;;;;;;;5024763;28;20086;-57
2022/01/22 04:08:37;;;;;;;5.30;4.63;;;;;;;;;;5019737;28;20026;-53
2022/01/22 04:11:08;;;;;;;8.52;4.50;;;;;;;;;;5021987;28;20049;-55
2022/01/22 04:13:35;;;;;;;5.40;4.63;;;;;;;;;;5020797;28;20108;-55
2022/01/22 04:16:01;;;;;;;7.55;4.47;;;;;;;;;;5018120;28;20115;-57
2022/01/22 04:26:53;;;;;;;7.97;4.85;;;;;;;;;;5024270;28;20087;-58
2022/01/22 04:29:21;;;;;;;10.43;4.22;;;;;;;;;;5022510;28;20132;-57
2022/01/22 04:31:47;;;;;;;7.75;4.10;;;;;;;;;;5025132;28;20040;-56
2022/01/22 04:34:12;;;;;;;5.85;4.38;;;;;;;;;;5024726;28;20030;-55
2022/01/22 04:36:38;;;;;;;6.78;4.38;;;;;;;;;;5023242;28;20117;-56
2022/01/22 04:39:04;;;;;;;7.00;4.55;;;;;;;;;;5022596;28;20065;-57
2022/01/22 04:41:30;;;;;;;7.97;4.60;;;;;;;;;;5021947;28;20072;-57
2022/01/22 04:44:02;;;;;;;6.05;4.00;;;;;;;;;;5022455;28;20041;-57
2022/01/22 04:46:49;;;;;;;8.43;4.60;;;;;;;;;;5022775;28;20030;-57
2022/01/22 04:57:19;;;;;;;9.35;4.75;;;;;;;;;;5022957;28;20034;-57
2022/01/22 04:59:45;;;;;;;9.68;4.70;;;;;;;;;;5020577;28;20036;-58
2022/01/22 05:02:11;;;;;;;7.25;4.50;;;;;;;;;;5020106;28;20117;-58
2022/01/22 05:04:37;;;;;;;8.75;4.57;;;;;;;;;;5022701;28;20022;-55
2022/01/22 05:07:03;;;;;;;11.77;5.50;;;;;;;;;;5026733;28;20172;-58
2022/01/22 05:09:29;;;;;;;7.35;4.55;;;;;;;;;;5023902;28;20042;-55
2022/01/22 05:11:55;;;;;;;6.65;4.53;;;;;;;;;;5025937;28;20120;-56
2022/01/22 05:14:21;;;;;;;8.77;4.45;;;;;;;;;;5025914;28;20033;-57
2022/01/22 05:16:48;;;;;;;9.35;4.70;;;;;;;;;;5024684;28;20044;-56
2022/01/22 05:19:20;;;;;;;8.70;4.60;;;;;;;;;;5023572;28;20024;-55
2022/01/22 05:21:49;;;;;;;7.85;4.95;;;;;;;;;;5023863;28;20595;-58
2022/01/22 05:24:19;;;;;;;10.13;5.07;;;;;;;;;;5020662;28;20402;-55
2022/01/22 05:37:30;;;;;;;5.30;4.35;;;;;;;;;;5025553;28;20044;-56
2022/01/22 05:39:55;;;;;;;8.13;4.45;;;;;;;;;;5020134;28;20381;-54
2022/01/22 05:42:21;;;;;;;5.93;5.30;;;;;;;;;;5030034;28;20030;-53
2022/01/22 05:44:47;;;;;;;10.63;4.68;;;;;;;;;;5028892;28;20037;-56
2022/01/22 05:47:19;;;;;;;9.43;4.68;;;;;;;;;;5028630;28;20033;-58
2022/01/22 05:49:45;;;;;;;12.30;4.82;;;;;;;;;;5020719;28;20029;-56
2022/01/22 05:52:13;;;;;;;9.95;4.18;;;;;;;;;;5017359;28;20036;-56
2022/01/22 05:59:58;;;;;;;7.35;4.40;;;;;;;;;;5026883;28;20040;-53
2022/01/22 06:02:23;;;;;;;9.90;4.82;;;;;;;;;;5025593;28;20530;-54
2022/01/22 06:04:49;;;;;;;11.20;5.38;;;;;;;;;;5022017;28;20051;-56
2022/01/22 06:07:15;;;;;;;8.23;5.30;;;;;;;;;;5024974;28;20065;-57
2022/01/22 06:12:45;;;;;;;7.00;4.50;;;;;;;;;;5019175;28;20433;-54
2022/01/22 06:15:11;;;;;;;9.63;4.15;;;;;;;;;;5025874;28;20026;-58
2022/01/22 06:17:37;;;;;;;7.22;4.25;;;;;;;;;;5026521;28;20036;-55
2022/01/22 06:20:04;;;;;;;6.20;4.25;;;;;;;;;;5025458;28;20046;-55
2022/01/22 06:22:30;;;;;;;6.10;4.43;;;;;;;;;;5022740;28;20048;-53
2022/01/22 06:24:56;;;;;;;9.25;4.38;;;;;;;;;;5025728;28;20029;-57
2022/01/22 06:27:22;;;;;;;7.07;4.70;;;;;;;;;;5024965;28;20025;-56
2022/01/22 06:29:48;;;;;;;8.20;4.70;;;;;;;;;;5021881;28;20430;-56
2022/01/22 06:32:13;;;;;;;5.75;5.03;;;;;;;;;;5023484;28;20034;-57
2022/01/22 06:34:39;;;;;;;6.60;4.30;;;;;;;;;;5020021;28;20045;-58
2022/01/22 06:37:05;;;;;;;5.95;4.57;;;;;;;;;;5019174;28;20030;-54
2022/01/22 06:39:40;;;;;;;9.85;4.72;;;;;;;;;;5025483;28;20383;-56
2022/01/22 06:42:06;;;;;;;6.43;4.35;;;;;;;;;;5021366;28;20076;-58
2022/01/22 06:44:34;;;;;;;8.35;5.25;;;;;;;;;;5024822;28;20053;-57
2022/01/22 06:47:00;;;;;;;9.68;4.90;;;;;;;;;;5022463;28;20033;-57
2022/01/22 06:49:26;;;;;;;8.98;4.45;;;;;;;;;;5019654;28;20066;-54
2022/01/22 06:51:54;;;;;;;11.02;4.97;;;;;;;;;;5022341;28;20072;-54
2022/01/22 06:54:21;;;;;;;7.38;4.40;;;;;;;;;;5021961;28;20046;-58
2022/01/22 06:56:47;;;;;;;9.55;4.50;;;;;;;;;;5024335;28;20033;-56
2022/01/22 06:59:13;;;;;;;9.63;4.68;;;;;;;;;;5018815;28;20421;-59
2022/01/22 07:01:39;;;;;;;11.48;5.15;;;;;;;;;;5017350;28;20041;-58
2022/01/22 07:04:07;;;;;;;10.60;5.20;;;;;;;;;;5019490;28;20495;-58
2022/01/22 07:06:32;;;;;;;10.63;5.80;;;;;;;;;;5016925;28;20037;-56
2022/01/22 07:08:58;;;;;;;7.90;6.10;;;;;;;;;;5015910;28;20034;-55
2022/01/22 07:11:24;;;;;;;15.15;7.75;;;;;;;;;;5022258;28;20038;-58
2022/01/22 07:13:50;;;;;;;9.65;6.93;;;;;;;;;;5019970;28;20453;-55
2022/01/22 07:16:16;;;;;;;12.55;6.78;;;;;;;;;;5019529;28;20116;-54
2022/01/22 07:18:43;;;;;;;10.68;6.10;;;;;;;;;;5014052;28;20123;-58
2022/01/22 07:21:20;;;;;;;10.05;6.20;;;;;;;;;;5022661;28;20049;-57
2022/01/22 07:26:13;;;;;;;8.70;4.85;;;;;;;;;;5020030;28;20022;-57
2022/01/22 07:28:39;;;;;;;8.85;5.20;;;;;;;;;;5017888;28;20044;-55
2022/01/22 07:31:06;;;;;;;7.53;5.03;;;;;;;;;;5018087;28;20033;-58
2022/01/22 07:33:31;;;;;;;8.80;4.97;;;;;;;;;;5023019;28;20030;-57
2022/01/22 07:35:57;;;;;;;8.32;5.38;;;;;;;;;;5017762;28;20033;-56
2022/01/22 07:38:23;;;;;;;7.90;4.97;;;;;;;;;;5015576;28;20044;-58
2022/01/22 07:40:49;;;;;;;8.02;4.72;;;;;;;;;;5021569;28;20051;-57
2022/01/22 07:43:16;;;;;;;11.50;5.75;;;;;;;;;;5021165;28;20446;-58
2022/01/22 07:45:42;;;;;;;11.18;6.38;;;;;;;;;;5021532;28;20484;-58
2022/01/22 07:48:09;;;;;;;9.27;6.43;;;;;;;;;;5020759;28;20091;-58
2022/01/22 07:50:34;;;;;;;18.75;9.90;;;;;;;;;;5023027;28;20025;-58
2022/01/22 07:53:02;;;;;;;15.27;9.38;;;;;;;;;;5022852;28;20033;-53
2022/01/22 07:55:28;;;;;;;9.13;6.05;;;;;;;;;;5019976;28;20065;-58
2022/01/22 07:57:54;;;;;;;10.45;5.75;;;;;;;;;;5021440;28;20465;-56
2022/01/22 08:00:20;;;;;;;12.57;6.65;;;;;;;;;;5022824;28;20029;-58
2022/01/22 08:02:46;;;;;;;7.35;6.03;;;;;;;;;;5015086;28;20037;-59
2022/01/22 08:05:12;;;;;;;12.18;6.25;;;;;;;;;;5022651;28;20025;-57
2022/01/22 08:07:43;;;;;;;11.82;7.15;;;;;;;;;;5021238;28;20033;-56
2022/01/22 08:10:10;;;;;;;11.00;6.10;;;;;;;;;;5017153;28;20553;-59
2022/01/22 08:12:37;;;;;;;12.02;6.07;;;;;;;;;;5017603;28;20030;-58
2022/01/22 08:15:05;;;;;;;9.15;6.03;;;;;;;;;;5026408;28;20037;-54
2022/01/22 08:17:31;;;;;;;11.73;6.45;;;;;;;;;;5020456;28;20079;-58
2022/01/22 08:19:57;;;;;;;8.57;5.70;;;;;;;;;;5021962;28;20047;-58
2022/01/22 08:22:23;;;;;;;12.32;6.40;;;;;;;;;;5024593;28;20034;-59
2022/01/22 08:24:52;;;;;;;8.55;6.40;;;;;;;;;;5020182;28;20116;-58
2022/01/22 08:27:35;;;;;;;9.05;6.47;;;;;;;;;;5015607;28;20382;-59
2022/01/22 08:30:03;;;;;;;11.40;5.85;;;;;;;;;;5017731;28;20138;-58
2022/01/22 08:37:42;;;;;;;6.93;4.47;;;;;;;;;;5022632;28;20026;-56
2022/01/22 08:40:10;;;;;;;6.18;4.88;;;;;;;;;;5020661;28;20033;-58
2022/01/22 08:42:37;;;;;;;7.72;4.43;;;;;;;;;;5020912;28;20382;-59
2022/01/22 08:45:04;;;;;;;8.23;4.30;;;;;;;;;;5024305;28;20514;-59
2022/01/22 08:47:30;;;;;;;9.63;4.55;;;;;;;;;;5021765;28;20088;-58
2022/01/22 08:49:56;;;;;;;8.02;4.85;;;;;;;;;;5022228;28;20034;-56
2022/01/22 08:52:26;;;;;;;7.55;4.18;;;;;;;;;;5024937;28;20501;-58
2022/01/22 08:54:52;;;;;;;7.53;4.93;;;;;;;;;;5024692;28;20060;-59
2022/01/22 08:57:18;;;;;;;9.70;4.38;;;;;;;;;;5024396;28;20041;-59
2022/01/22 08:59:44;;;;;;;7.57;4.00;;;;;;;;;;5021149;28;20149;-57
2022/01/22 09:02:10;;;;;;;8.18;5.15;;;;;;;;;;5020507;28;20100;-59
2022/01/22 09:04:36;;;;;;;10.77;4.30;;;;;;;;;;5019225;28;20489;-59
2022/01/22 09:07:03;;;;;;;9.23;5.78;;;;;;;;;;5028115;28;20461;-58
2022/01/22 09:09:29;;;;;;;8.98;4.72;;;;;;;;;;5028945;28;20030;-56
2022/01/22 09:11:56;;;;;;;7.28;4.55;;;;;;;;;;5020198;28;20038;-59
2022/01/22 09:14:22;;;;;;;7.43;4.25;;;;;;;;;;5023102;28;20049;-59
2022/01/22 09:16:51;;;;;;;6.32;4.30;;;;;;;;;;5025113;28;20033;-59
2022/01/22 09:19:19;;;;;;;7.20;4.15;;;;;;;;;;5020253;28;20030;-55
2022/01/22 09:21:46;;;;;;;10.13;4.82;;;;;;;;;;5027129;28;20045;-58
2022/01/22 09:24:15;;;;;;;10.27;4.50;;;;;;;;;;5024676;28;20033;-59
2022/01/22 09:26:41;;;;;;;9.30;4.53;;;;;;;;;;5020350;28;20111;-54
2022/01/22 09:29:07;;;;;;;7.72;4.10;;;;;;;;;;5029222;28;20030;-57
2022/01/22 09:31:34;;;;;;;5.72;4.10;;;;;;;;;;5023066;28;20105;-57
2022/01/22 09:34:00;;;;;;;7.53;4.18;;;;;;;;;;5028256;28;20084;-57
2022/01/22 09:36:29;;;;;;;8.60;3.70;;;;;;;;;;5025353;28;20040;-59
2022/01/22 09:38:55;;;;;;;11.52;4.30;;;;;;;;;;5027333;28;20413;-55
2022/01/22 09:41:22;;;;;;;6.95;4.55;;;;;;;;;;5028571;28;20041;-59
2022/01/22 09:43:48;;;;;;;5.72;4.18;;;;;;;;;;5021734;28;20052;-58
2022/01/22 09:46:15;;;;;;;6.45;4.00;;;;;;;;;;5024010;28;20041;-57
2022/01/22 09:48:42;;;;;;;8.98;4.30;;;;;;;;;;5022750;28;20037;-58
2022/01/22 09:51:09;;;;;;;6.10;4.53;;;;;;;;;;5028962;28;20029;-57
2022/01/22 09:53:35;;;;;;;6.72;4.60;;;;;;;;;;5021628;28;20026;-58
2022/01/22 09:56:01;;;;;;;8.18;4.53;;;;;;;;;;5025980;28;20026;-59
2022/01/22 09:58:27;;;;;;;9.43;4.20;;;;;;;;;;5022249;28;20025;-58
2022/01/22 10:00:52;;;;;;;8.25;4.18;;;;;;;;;;5022459;28;20051;-57
2022/01/22 10:03:20;;;;;;;7.65;4.25;;;;;;;;;;5022976;28;20041;-59
2022/01/22 10:05:48;;;;;;;7.65;4.35;;;;;;;;;;5020687;28;20041;-55
2022/01/22 10:08:30;;;;;;;7.07;4.50;;;;;;;;;;5024702;28;20033;-58
2022/01/22 10:11:00;;;;;;;7.10;4.82;;;;;;;;;;5027804;28;20040;-57
2022/01/22 10:13:59;;;;;;;9.35;5.22;;;;;;;;;;5022087;28;20037;-58
2022/01/22 10:16:32;;;;;;;6.10;5.25;;;;;;;;;;5020137;28;20120;-57
2022/01/22 10:19:21;;;;;;;11.63;5.25;;;;;;;;;;5017143;28;20488;-59
2022/01/22 10:21:58;;;;;;;9.38;5.30;;;;;;;;;;5023946;28;20605;-59
2022/01/22 10:24:46;;;;;;;9.38;4.38;;;;;;;;;;5019513;28;20735;-58
2022/01/22 10:27:21;;;;;;;8.80;5.07;;;;;;;;;;5021823;28;20036;-59
2022/01/22 10:29:51;;;;;;;10.20;5.47;;;;;;;;;;5027697;28;20033;-59
2022/01/22 10:32:35;;;;;;;6.35;4.63;;;;;;;;;;5026067;28;20394;-59
2022/01/22 10:35:10;;;;;;;6.13;4.30;;;;;;;;;;5022508;28;20443;-59
2022/01/22 10:37:36;;;;;;;8.15;4.22;;;;;;;;;;5017856;28;20067;-60
2022/01/22 10:40:25;;;;;;;5.97;3.78;;;;;;;;;;5026171;28;20041;-59
2022/01/22 10:42:52;;;;;;;7.75;4.35;;;;;;;;;;5019432;28;20084;-59
2022/01/22 10:45:29;;;;;;;6.35;4.60;;;;;;;;;;5026772;28;20037;-58
2022/01/22 10:48:18;;;;;;;7.82;4.13;;;;;;;;;;5024704;28;20029;-59
2022/01/22 10:50:44;;;;;;;5.43;3.58;;;;;;;;;;5025396;28;20088;-58
2022/01/22 10:53:10;;;;;;;6.75;4.15;;;;;;;;;;5025507;28;20056;-59
2022/01/22 10:56:02;;;;;;;5.22;3.65;;;;;;;;;;5021288;28;20029;-60
2022/01/22 10:58:29;;;;;;;4.90;3.85;;;;;;;;;;5021772;28;20030;-59
2022/01/22 11:01:05;;;;;;;5.22;3.47;;;;;;;;;;5020428;28;20033;-58
2022/01/22 11:03:32;;;;;;;5.22;3.92;;;;;;;;;;5015493;28;20041;-58
2022/01/22 11:06:04;;;;;;;7.75;5.70;;;;;;;;;;5021227;28;20027;-57
2022/01/22 11:08:29;;;;;;;9.50;4.47;;;;;;;;;;5024396;28;20375;-58
2022/01/22 11:10:56;;;;;;;6.53;4.13;;;;;;;;;;5023598;28;20116;-58
2022/01/22 11:13:21;;;;;;;9.15;5.50;;;;;;;;;;5021672;28;20025;-59
2022/01/22 11:15:51;;;;;;;7.20;3.67;;;;;;;;;;5025146;28;20036;-59
2022/01/22 11:18:18;;;;;;;6.45;4.20;;;;;;;;;;5026518;28;20030;-59
2022/01/22 11:20:45;;;;;;;4.88;4.22;;;;;;;;;;5020645;28;20054;-59
2022/01/22 11:23:13;;;;;;;9.90;4.65;;;;;;;;;;5020583;28;20022;-59
2022/01/22 11:25:40;;;;;;;6.32;4.53;;;;;;;;;;5020801;28;20207;-58
2022/01/22 11:28:06;;;;;;;8.85;4.35;;;;;;;;;;5019253;28;20100;-59
2022/01/22 11:30:33;;;;;;;8.27;4.43;;;;;;;;;;5019966;28;20688;-59
2022/01/22 11:33:07;;;;;;;8.13;5.00;;;;;;;;;;5022357;28;20029;-56
2022/01/22 11:35:35;;;;;;;5.35;4.43;;;;;;;;;;5018875;28;20356;-57
2022/01/22 11:38:07;;;;;;;7.40;4.25;;;;;;;;;;5017933;28;20060;-59
2022/01/22 11:40:34;;;;;;;7.30;4.38;;;;;;;;;;5018635;28;20030;-58
2022/01/22 11:43:10;;;;;;;9.57;4.45;;;;;;;;;;5019475;28;20053;-59
2022/01/22 11:45:43;;;;;;;10.55;4.60;;;;;;;;;;5020734;28;20075;-55
2022/01/22 11:48:18;;;;;;;4.32;3.75;;;;;;;;;;5023133;28;20061;-57
2022/01/22 11:50:49;;;;;;;5.20;3.90;;;;;;;;;;5021291;28;20431;-59
2022/01/22 11:53:34;;;;;;;8.52;4.60;;;;;;;;;;5020892;28;20060;-58
2022/01/22 11:56:09;;;;;;;4.20;3.78;;;;;;;;;;5022582;28;20099;-56
2022/01/22 11:58:56;;;;;;;7.13;4.47;;;;;;;;;;5016712;28;20030;-58
2022/01/22 12:01:37;;;;;;;5.68;3.95;;;;;;;;;;5015924;28;20540;-59
2022/01/22 12:04:05;;;;;;;8.80;4.80;;;;;;;;;;5023031;28;20069;-58
2022/01/22 12:06:31;;;;;;;10.77;6.75;;;;;;;;;;5023921;28;20075;-58
2022/01/22 12:09:06;;;;;;;12.45;7.00;;;;;;;;;;5023204;28;20541;-57
2022/01/22 12:14:54;;;;;;;10.40;5.47;;;;;;;;;;5023659;28;20029;-57
2022/01/22 12:17:40;;;;;;;7.63;5.50;;;;;;;;;;5020216;28;20030;-59
2022/01/22 12:20:28;;;;;;;5.05;4.38;;;;;;;;;;5015690;28;20505;-58
2022/01/22 12:22:53;;;;;;;9.02;4.53;;;;;;;;;;5019317;28;20054;-56
2022/01/22 12:25:22;;;;;;;10.35;4.80;;;;;;;;;;5021455;28;20124;-57
2022/01/22 12:27:52;;;;;;;8.57;4.93;;;;;;;;;;5017020;28;20037;-58
2022/01/22 12:30:44;;;;;;;7.55;4.40;;;;;;;;;;5021096;28;20466;-59
2022/01/22 12:33:30;;;;;;;7.07;4.63;;;;;;;;;;5021647;28;20039;-59
2022/01/22 12:35:59;;;;;;;6.65;4.38;;;;;;;;;;5016363;28;20529;-58
2022/01/22 12:41:01;;;;;;;8.35;5.10;;;;;;;;;;5021134;28;20859;-59
2022/01/22 12:43:33;;;;;;;9.40;4.95;;;;;;;;;;5020371;28;20462;-58
2022/01/22 12:46:03;;;;;;;6.32;4.78;;;;;;;;;;5021931;28;20031;-58
2022/01/22 12:48:32;;;;;;;7.93;4.65;;;;;;;;;;5023051;28;20044;-59
2022/01/22 12:51:04;;;;;;;8.40;4.78;;;;;;;;;;5019099;28;20118;-59
2022/01/22 12:53:31;;;;;;;14.40;5.13;;;;;;;;;;5020497;28;20482;-59
2022/01/22 12:58:27;;;;;;;9.90;4.80;;;;;;;;;;5018539;28;20105;-59
2022/01/22 13:01:23;;;;;;;7.28;4.32;;;;;;;;;;5019924;28;20025;-56
2022/01/22 13:03:53;;;;;;;9.20;4.95;;;;;;;;;;5018793;28;20507;-58
2022/01/22 13:06:24;;;;;;;7.57;4.75;;;;;;;;;;5021300;28;20029;-57
2022/01/22 13:08:55;;;;;;;7.00;4.60;;;;;;;;;;5020032;28;20026;-57
2022/01/22 13:11:24;;;;;;;7.00;3.90;;;;;;;;;;5018365;28;20092;-58
2022/01/22 13:13:50;;;;;;;7.93;3.85;;;;;;;;;;5020512;28;20459;-59
2022/01/22 13:16:17;;;;;;;10.77;4.13;;;;;;;;;;5019410;28;20887;-58
2022/01/22 13:18:56;;;;;;;5.20;3.60;;;;;;;;;;5019913;28;20025;-60
2022/01/22 13:21:23;;;;;;;5.85;4.03;;;;;;;;;;5021450;28;20057;-54
2022/01/22 13:24:11;;;;;;;5.28;3.92;;;;;;;;;;5023261;28;20109;-59
2022/01/22 13:26:51;;;;;;;4.82;3.95;;;;;;;;;;5022859;28;20179;-56
2022/01/22 13:29:30;;;;;;;9.57;3.70;;;;;;;;;;5027114;28;20040;-59
2022/01/22 13:31:58;;;;;;;8.15;3.72;;;;;;;;;;5026604;28;20382;-57
2022/01/22 13:34:36;;;;;;;6.55;4.18;;;;;;;;;;5022959;28;20037;-59
2022/01/22 13:48:44;;;;;;;7.32;4.47;;;;;;;;;;5023332;28;20115;-57
2022/01/22 13:51:11;;;;;;;6.72;4.30;;;;;;;;;;5019486;28;20115;-59
2022/01/22 13:53:39;;;;;;;7.40;4.35;;;;;;;;;;5026401;28;20032;-59
2022/01/22 13:56:11;;;;;;;6.90;4.07;;;;;;;;;;5026649;28;21153;-58
2022/01/22 13:58:37;;;;;;;;;;;;;;;;;;5027081;28;20032;-57
2022/01/22 14:01:18;;;;;;;9.10;3.67;;;;;;;;;;5026753;28;19925;-59
2022/01/22 14:03:45;;;;;;;8.95;4.20;;;;;;;;;;5023641;28;20029;-59
2022/01/22 14:06:11;;;;;;;6.78;3.72;;;;;;;;;;5021466;28;20033;-58
2022/01/22 14:08:37;;;;;;;5.38;3.80;;;;;;;;;;5025483;28;20083;-57
2022/01/22 14:11:13;;;;;;;5.15;3.55;;;;;;;;;;5025016;28;20107;-57
2022/01/22 14:13:40;;;;;;;6.78;4.05;;;;;;;;;;5021512;28;20033;-59
2022/01/22 14:16:20;;;;;;;5.93;3.83;;;;;;;;;;5023141;28;20018;-57
2022/01/22 14:18:47;;;;;;;7.45;4.82;;;;;;;;;;5022606;28;20034;-57
2022/01/22 14:21:20;;;;;;;8.15;4.10;;;;;;;;;;5024218;28;20049;-56
2022/01/22 14:23:50;;;;;;;6.00;3.30;;;;;;;;;;5023255;28;20083;-59
2022/01/22 14:26:18;;;;;;;5.70;3.78;;;;;;;;;;5024187;28;20041;-59
2022/01/22 14:28:49;;;;;;;4.45;3.17;;;;;;;;;;5022659;28;20401;-59
2022/01/22 14:31:30;;;;;;;8.40;4.38;;;;;;;;;;5021177;28;20462;-59
2022/01/22 14:34:11;;;;;;;7.95;4.20;;;;;;;;;;5020929;28;20465;-59
2022/01/22 14:36:39;;;;;;;5.57;3.67;;;;;;;;;;5024636;28;20389;-59
2022/01/22 14:39:16;;;;;;;9.98;4.18;;;;;;;;;;5018651;28;20038;-58
2022/01/22 14:44:57;;;;;;;6.93;4.22;;;;;;;;;;5024726;28;20123;-59
2022/01/22 14:47:28;;;;;;;5.22;3.92;;;;;;;;;;5020079;28;20032;-59
2022/01/22 14:50:10;;;;;;;6.53;4.18;;;;;;;;;;5019340;28;20030;-56
2022/01/22 14:52:36;;;;;;;9.73;4.68;;;;;;;;;;5026177;28;20026;-59
2022/01/22 14:55:10;;;;;;;7.93;4.78;;;;;;;;;;5021124;28;20592;-58
2022/01/22 14:57:38;;;;;;;6.13;3.95;;;;;;;;;;5023994;28;20108;-58
2022/01/22 15:00:14;;;;;;;11.32;4.50;;;;;;;;;;5020863;28;20035;-56
2022/01/22 15:02:40;;;;;;;7.75;4.90;;;;;;;;;;5016222;28;20061;-59
2022/01/22 15:05:12;;;;;;;6.00;4.28;;;;;;;;;;5022849;28;20025;-57
2022/01/22 15:07:38;;;;;;;9.60;4.68;;;;;;;;;;5021867;28;20108;-57
2022/01/22 15:10:06;;;;;;;6.03;3.95;;;;;;;;;;5017724;28;20037;-58
2022/01/22 15:12:37;;;;;;;10.43;4.43;;;;;;;;;;5020665;28;20033;-59
2022/01/22 15:15:03;;;;;;;4.82;3.95;;;;;;;;;;5023991;28;20029;-57
2022/01/22 15:19:55;;;;;;;5.57;3.83;;;;;;;;;;5019733;28;20045;-59
2022/01/22 15:22:21;;;;;;;5.43;3.83;;;;;;;;;;5023698;28;20462;-59
2022/01/22 15:24:49;;;;;;;4.90;3.60;;;;;;;;;;5019115;28;20033;-58
2022/01/22 15:27:17;;;;;;;8.82;3.90;;;;;;;;;;5019212;28;20075;-59
2022/01/22 15:29:55;;;;;;;6.57;3.50;;;;;;;;;;5020643;28;20430;-58
2022/01/22 15:32:41;;;;;;;9.90;3.90;;;;;;;;;;5022378;28;20030;-58
2022/01/22 15:35:10;;;;;;;6.07;3.85;;;;;;;;;;5020879;28;20021;-58
2022/01/22 15:37:38;;;;;;;6.40;3.65;;;;;;;;;;5022106;28;20529;-58
2022/01/22 15:40:06;;;;;;;5.18;3.50;;;;;;;;;;5018200;28;20029;-58
2022/01/22 15:42:32;;;;;;;6.93;3.80;;;;;;;;;;5022983;28;20128;-58
2022/01/22 15:44:58;;;;;;;7.25;4.43;;;;;;;;;;5023006;28;20108;-59
2022/01/22 15:47:23;;;;;;;7.30;3.83;;;;;;;;;;5018178;28;20060;-59
2022/01/22 15:49:57;;;;;;;7.47;4.80;;;;;;;;;;5025021;28;20052;-57
2022/01/22 15:52:27;;;;;;;6.50;5.43;;;;;;;;;;5019660;28;20026;-58
2022/01/22 15:54:53;;;;;;;6.05;4.22;;;;;;;;;;5022385;28;20037;-59
2022/01/22 15:57:19;;;;;;;6.85;3.75;;;;;;;;;;5020397;28;20026;-58
2022/01/22 15:59:46;;;;;;;12.30;4.10;;;;;;;;;;5019193;28;20252;-58
2022/01/22 16:02:12;;;;;;;6.47;4.32;;;;;;;;;;5052346;28;20136;-59
2022/01/22 16:04:38;;;;;;;10.15;6.40;;;;;;;;;;5024751;28;20029;-56
2022/01/22 16:07:18;;;;;;;10.07;5.40;;;;;;;;;;5022105;28;20426;-59
2022/01/22 16:09:44;;;;;;;9.25;5.13;;;;;;;;;;5021950;28;20110;-53
2022/01/22 16:12:10;;;;;;;8.70;4.72;;;;;;;;;;5021675;28;20037;-60
2022/01/22 16:14:37;;;;;;;7.05;4.25;;;;;;;;;;5023836;28;20027;-59
2022/01/22 16:17:04;;;;;;;6.60;4.65;;;;;;;;;;5021056;28;20500;-59
2022/01/22 16:19:32;;;;;;;6.63;4.40;;;;;;;;;;5019291;28;20049;-58
2022/01/22 16:21:59;;;;;;;6.82;4.38;;;;;;;;;;5020271;28;21050;-59
2022/01/22 16:24:25;;;;;;;6.72;4.60;;;;;;;;;;5022398;28;20065;-56
2022/01/22 16:26:51;;;;;;;6.05;4.38;;;;;;;;;;5023367;28;20025;-58
2022/01/22 16:29:17;;;;;;;7.40;4.22;;;;;;;;;;5021491;28;20040;-57
2022/01/22 16:31:44;;;;;;;5.15;4.43;;;;;;;;;;5023594;28;20116;-59
2022/01/22 16:34:10;;;;;;;6.50;4.78;;;;;;;;;;5023232;28;20416;-60
2022/01/22 16:36:36;;;;;;;8.32;4.75;;;;;;;;;;5019886;28;20034;-59
2022/01/22 16:39:05;;;;;;;6.78;5.20;;;;;;;;;;5024250;28;20034;-58
2022/01/22 16:41:33;;;;;;;12.88;7.40;;;;;;;;;;5018381;28;20079;-60
2022/01/22 16:44:12;;;;;;;12.50;7.70;;;;;;;;;;5017112;28;20030;-60
2022/01/22 16:54:44;;;;;;;12.75;7.32;;;;;;;;;;5017014;28;20021;-59
2022/01/22 16:57:16;;;;;;;12.75;6.80;;;;;;;;;;5020267;28;20042;-59
2022/01/22 16:59:46;;;;;;;10.27;7.80;;;;;;;;;;5022969;28;20022;-57
2022/01/22 17:02:16;;;;;;;41.08;28.55;;;;;;;;;;5022911;28;20604;-59
2022/01/22 17:04:45;;;;;;;44.22;26.23;;;;;;;;;;5021554;28;20061;-59
2022/01/22 17:07:24;;;;;;;45.53;28.58;;;;;;;;;;5017853;28;20432;-59